International Virtual Aviation Organisation

Eastern Europe and Northern Asia MCD

 
UAAH 110300Z 06014MPS CAVOK 08/M08 Q1024 R05/////60 NOSIG RMK QFE730/0974
QNH:(hPa/inHg/mmHg)1024 / 30.24 / 768
QFE:(hPa/inHg/mmHg)970 / 28.66 / 728
Temperature8
Dew Point-8
Visibility> 10000
WeatherCAVOK
Cloud Cover
Transition Height900 m./4400 ft.
Transition LevelFL50
SQUAWK